Time;durP1;ratioP1;P1;durP2;ratioP2;P2;SDS_P1;SDS_P2;PMS_P1;PMS_P2;Temp;Humidity;BMP_temperature;BMP_pressure;BME280_temperature;BME280_humidity;BME280_pressure;Samples;Min_cycle;Max_cycle;Signal;HPM_P1;HPM_P2
2023/09/18 00:00:21;;;;;;;20.60;15.90;;;;;;;18.53;60.50;100049.95;109692;1250;61736;-54
2023/09/18 00:02:48;;;;;;;;;;;;;;;18.57;60.57;100047.67;109746;1250;58967;-55
2023/09/18 00:05:15;;;;;;;18.20;13.40;;;;;;;18.61;60.57;100047.73;109698;1250;74696;-54
2023/09/18 00:07:43;;;;;;;23.80;14.70;;;;;;;18.70;60.26;100047.88;109746;1250;69171;-55
2023/09/18 00:10:10;;;;;;;18.40;14.50;;;;;;;18.50;60.96;100051.48;109722;1250;71387;-55
2023/09/18 00:12:38;;;;;;;20.70;14.80;;;;;;;18.48;61.12;100054.44;109624;1250;60441;-54
2023/09/18 00:15:05;;;;;;;21.40;14.60;;;;;;;18.43;61.23;100054.39;109563;1251;60076;-55
2023/09/18 00:17:32;;;;;;;22.00;14.40;;;;;;;18.31;61.80;100055.45;109438;1252;74748;-55
2023/09/18 00:19:58;;;;;;;17.30;14.60;;;;;;;18.21;62.38;100051.92;109608;1250;67854;-55
2023/09/18 00:22:25;;;;;;;20.60;15.90;;;;;;;18.24;62.10;100050.74;109613;1251;71494;-53
2023/09/18 00:24:52;;;;;;;18.10;13.70;;;;;;;18.21;62.54;100049.59;109725;1250;60839;-55
2023/09/18 00:27:18;;;;;;;21.40;14.50;;;;;;;18.24;62.72;100048.15;109676;1250;58972;-54
2023/09/18 00:29:45;;;;;;;17.40;12.40;;;;;;;18.14;63.30;100044.68;109787;1250;74540;-55
2023/09/18 00:32:12;;;;;;;18.90;14.00;;;;;;;18.20;63.30;100045.86;109740;1250;67465;-55
2023/09/18 00:34:39;;;;;;;22.00;15.20;;;;;;;18.36;62.14;100044.02;109450;1250;71237;-55
2023/09/18 00:37:05;;;;;;;18.40;13.70;;;;;;;18.37;61.98;100046.17;109435;1250;61742;-55
2023/09/18 00:39:32;;;;;;;19.90;13.40;;;;;;;18.28;62.36;100043.14;109700;1250;59262;-54
2023/09/18 00:41:59;;;;;;;17.80;13.00;;;;;;;18.24;62.83;100040.87;109433;1251;73708;-54
2023/09/18 00:44:28;;;;;;;17.40;13.10;;;;;;;18.24;62.44;100037.50;109719;1250;67360;-54
2023/09/18 00:46:55;;;;;;;18.80;13.40;;;;;;;18.12;62.76;100036.02;109675;1250;71227;-54
2023/09/18 00:49:22;;;;;;;20.40;14.70;;;;;;;18.13;62.51;100038.56;109700;1251;61894;-54
2023/09/18 00:51:50;;;;;;;18.60;14.70;;;;;;;18.05;62.66;100039.31;109692;1250;58998;-55
2023/09/18 00:54:18;;;;;;;20.90;15.60;;;;;;;18.04;62.78;100039.45;109659;1250;74631;-55
2023/09/18 00:56:45;;;;;;;20.20;14.60;;;;;;;17.93;63.63;100038.77;109673;1250;67302;-55
2023/09/18 00:59:13;;;;;;;20.80;14.80;;;;;;;17.85;64.08;100039.84;109590;1250;71302;-54
2023/09/18 01:01:40;;;;;;;17.80;14.00;;;;;;;17.85;63.93;100037.98;109309;1251;60918;-54
2023/09/18 01:04:07;;;;;;;18.60;14.00;;;;;;;17.90;63.57;100034.67;109715;1250;58980;-54
2023/09/18 01:06:34;;;;;;;21.90;14.40;;;;;;;17.85;63.62;100033.76;109437;1251;74707;-54
2023/09/18 01:09:01;;;;;;;17.10;13.40;;;;;;;17.77;63.78;100036.77;109153;1251;67259;-54
2023/09/18 01:11:37;;;;;;;20.10;14.00;;;;;;;17.75;64.07;100036.67;109489;1250;72716;-54
2023/09/18 01:14:09;;;;;;;19.10;14.10;;;;;;;17.79;63.94;100031.81;109466;1252;61656;-54
2023/09/18 01:16:57;;;;;;;17.60;13.30;;;;;;;17.83;63.77;100033.35;109530;1253;60067;-54
2023/09/18 01:19:46;;;;;;;14.90;13.10;;;;;;;17.84;64.14;100034.98;109497;1253;74457;-54
2023/09/18 01:22:15;;;;;;;21.50;13.60;;;;;;;17.94;63.79;100035.27;109530;1252;67194;-54
2023/09/18 01:24:41;;;;;;;20.20;15.40;;;;;;;17.98;63.60;100029.52;109516;1251;70614;-53
2023/09/18 01:27:14;;;;;;;20.30;14.40;;;;;;;17.90;63.86;100025.92;109504;1253;60617;-54
2023/09/18 01:29:41;;;;;;;17.30;13.40;;;;;;;17.94;63.75;100025.23;109568;1252;59416;-54
2023/09/18 01:32:08;;;;;;;18.30;14.50;;;;;;;17.93;63.10;100025.95;109368;1252;74425;-55
2023/09/18 01:34:41;;;;;;;19.90;15.10;;;;;;;17.85;62.90;100030.88;109564;1252;68432;-54
2023/09/18 01:37:09;;;;;;;19.30;13.20;;;;;;;17.76;62.88;100029.60;109465;1251;72691;-54
2023/09/18 01:39:36;;;;;;;19.20;14.20;;;;;;;17.66;63.00;100029.34;109561;1253;62026;-54
2023/09/18 01:42:05;;;;;;;18.10;14.50;;;;;;;17.45;63.61;100024.19;109581;1252;59287;-54
2023/09/18 01:44:34;;;;;;;18.80;13.80;;;;;;;17.40;63.99;100023.54;109522;1252;74714;-54
2023/09/18 01:47:02;;;;;;;21.80;14.70;;;;;;;17.32;64.18;100019.98;109520;1253;67335;-55
2023/09/18 01:49:31;;;;;;;23.10;14.40;;;;;;;17.37;63.73;100020.16;109542;1252;70394;-55
2023/09/18 01:51:58;;;;;;;19.20;15.00;;;;;;;17.26;63.97;100018.64;109564;1251;60557;-54
2023/09/18 01:54:25;;;;;;;16.00;14.00;;;;;;;17.25;64.24;100018.27;109550;1252;60330;-54
2023/09/18 01:56:54;;;;;;;19.00;14.10;;;;;;;17.27;64.46;100021.13;109541;1251;74469;-55
2023/09/18 01:59:21;;;;;;;18.20;13.80;;;;;;;17.24;65.09;100017.20;109570;1251;68664;-54
2023/09/18 02:01:49;;;;;;;18.30;15.10;;;;;;;17.30;64.58;100019.95;109563;1252;72548;-54
2023/09/18 02:04:17;;;;;;;20.70;15.80;;;;;;;17.16;65.42;100013.75;109336;1252;61851;-54
2023/09/18 02:07:05;;;;;;;22.40;16.00;;;;;;;17.11;65.78;100012.16;109144;1256;60165;-54
2023/09/18 02:09:32;;;;;;;22.80;16.70;;;;;;;16.98;66.33;100010.13;109037;1256;73490;-54
2023/09/18 02:11:58;;;;;;;21.20;15.30;;;;;;;16.84;67.05;100010.69;109322;1256;68640;-55
2023/09/18 02:14:26;;;;;;;20.40;15.20;;;;;;;16.86;67.02;100015.16;108948;1257;72673;-53
2023/09/18 02:16:53;;;;;;;20.50;15.10;;;;;;;16.86;66.85;100016.73;109020;1257;61830;-54
2023/09/18 02:19:20;;;;;;;19.40;15.40;;;;;;;16.79;67.06;100013.04;109005;1257;60095;-54
2023/09/18 02:21:47;;;;;;;21.40;14.70;;;;;;;16.77;66.98;100015.48;109046;1257;73629;-54
2023/09/18 02:24:14;;;;;;;24.00;16.00;;;;;;;16.72;66.82;100015.61;109046;1254;68589;-54
2023/09/18 02:26:40;;;;;;;20.10;15.20;;;;;;;16.72;66.56;100015.73;109380;1254;72454;-54
2023/09/18 02:29:10;;;;;;;20.50;15.30;;;;;;;16.66;66.35;100010.14;109175;1254;60533;-55
2023/09/18 02:31:38;;;;;;;22.10;15.30;;;;;;;16.47;67.49;100007.62;109291;1255;59106;-54
2023/09/18 02:34:05;;;;;;;25.30;17.30;;;;;;;16.56;67.11;100008.97;109272;1255;73162;-55
2023/09/18 02:36:32;;;;;;;25.10;16.20;;;;;;;16.54;66.97;100014.83;109321;1255;68322;-54
2023/09/18 02:38:58;;;;;;;30.10;16.30;;;;;;;16.59;67.14;100012.58;109162;1254;71690;-55
2023/09/18 02:41:25;;;;;;;26.80;16.10;;;;;;;16.63;67.42;100011.52;109285;1255;61769;-55
2023/09/18 02:43:52;;;;;;;24.10;16.90;;;;;;;16.69;67.47;100012.22;109310;1256;59069;-54
2023/09/18 02:46:18;;;;;;;21.50;15.70;;;;;;;16.70;67.80;100013.73;109137;1256;73297;-55
2023/09/18 02:48:46;;;;;;;42.50;17.60;;;;;;;16.76;67.48;100015.64;109162;1255;68592;-54
2023/09/18 02:51:13;;;;;;;22.40;15.80;;;;;;;16.78;67.52;100012.02;109357;1253;72439;-55
2023/09/18 02:53:39;;;;;;;45.00;17.20;;;;;;;16.74;67.71;100015.71;109575;1253;61838;-55
2023/09/18 02:56:06;;;;;;;24.80;16.70;;;;;;;16.63;68.05;100011.63;109582;1251;59828;-54
2023/09/18 02:58:33;;;;;;;30.30;15.90;;;;;;;16.63;68.29;100009.71;109290;1252;74919;-54
2023/09/18 03:01:02;;;;;;;30.50;17.50;;;;;;;16.65;68.12;100009.44;109587;1252;67300;-55
2023/09/18 03:03:29;;;;;;;24.40;16.60;;;;;;;16.73;67.99;100009.48;109359;1251;72479;-54
2023/09/18 03:06:04;;;;;;;27.60;15.60;;;;;;;16.57;69.09;100005.11;109543;1252;60521;-54
2023/09/18 03:08:31;;;;;;;38.10;15.50;;;;;;;16.54;69.66;100006.48;109463;1252;60201;-54
2023/09/18 03:10:58;;;;;;;28.50;16.00;;;;;;;16.61;68.64;100011.25;109573;1252;73303;-54
2023/09/18 03:13:27;;;;;;;23.80;14.50;;;;;;;16.54;68.75;100010.86;109567;1253;68987;-54
2023/09/18 03:15:53;;;;;;;49.70;18.00;;;;;;;16.43;69.32;100007.70;109565;1251;72632;-54
2023/09/18 03:18:20;;;;;;;32.60;14.70;;;;;;;16.41;69.68;100004.56;109587;1252;61756;-54
2023/09/18 03:20:48;;;;;;;34.20;17.00;;;;;;;16.33;70.68;100002.08;109649;1250;58939;-55
2023/09/18 03:23:14;;;;;;;30.40;16.70;;;;;;;16.38;70.60;100003.13;109576;1252;74471;-54
2023/09/18 03:25:42;;;;;;;31.20;15.40;;;;;;;16.37;70.79;100001.40;109471;1251;67715;-54
2023/09/18 03:28:19;;;;;;;30.10;15.70;;;;;;;16.32;70.54;99999.92;109593;1252;72738;-54
2023/09/18 03:30:46;;;;;;;29.60;16.10;;;;;;;16.30;70.25;100002.96;109571;1251;60215;-55
2023/09/18 03:33:13;;;;;;;24.70;16.90;;;;;;;16.26;70.02;100000.93;109572;1252;59057;-55
2023/09/18 03:35:50;;;;;;;29.60;14.50;;;;;;;16.28;69.87;99998.04;109592;1252;74468;-54
2023/09/18 03:38:20;;;;;;;18.90;14.30;;;;;;;16.30;69.53;99999.93;109635;1252;68432;-54
2023/09/18 03:40:48;;;;;;;28.80;14.70;;;;;;;16.22;69.95;99997.64;109602;1252;71153;-54
2023/09/18 03:43:14;;;;;;;35.60;15.80;;;;;;;16.26;70.09;99999.90;109603;1251;61693;-55
2023/09/18 03:45:41;;;;;;;24.40;14.80;;;;;;;16.30;70.37;100003.56;109575;1252;59074;-54
2023/09/18 03:48:10;;;;;;;24.00;14.90;;;;;;;16.31;70.78;100002.36;109306;1253;73131;-54
2023/09/18 03:50:37;;;;;;;35.00;15.70;;;;;;;16.35;71.11;100001.73;109411;1252;68954;-54
2023/09/18 03:53:03;;;;;;;36.80;16.00;;;;;;;16.42;70.66;100004.56;109594;1252;71226;-55
2023/09/18 03:55:30;;;;;;;19.70;15.20;;;;;;;16.49;70.06;100007.01;109544;1252;61953;-55
2023/09/18 03:57:57;;;;;;;29.20;18.20;;;;;;;16.56;69.85;100007.83;109563;1251;60293;-52
2023/09/18 04:00:24;;;;;;;35.70;16.50;;;;;;;16.67;69.56;100010.73;109574;1253;74523;-53
2023/09/18 04:02:50;;;;;;;26.10;18.70;;;;;;;16.92;68.83;100015.55;109455;1251;68645;-55
2023/09/18 04:05:18;;;;;;;29.50;19.90;;;;;;;17.00;69.05;100013.62;109562;1252;71529;-55
2023/09/18 04:07:46;;;;;;;28.40;18.60;;;;;;;17.07;68.72;100011.83;109583;1251;60604;-53
2023/09/18 04:10:22;;;;;;;26.30;17.60;;;;;;;16.99;68.81;100015.10;109528;1252;59301;-54
2023/09/18 04:12:50;;;;;;;21.10;15.50;;;;;;;17.07;68.42;100012.52;109554;1251;73182;-53
2023/09/18 04:15:18;;;;;;;21.00;15.20;;;;;;;17.25;67.33;100016.27;109650;1251;68786;-53
2023/09/18 04:17:46;;;;;;;;;;;;;;;17.29;66.82;100013.55;109608;1252;71713;-54
2023/09/18 04:20:13;;;;;;;27.70;15.20;;;;;;;17.42;66.37;100016.63;109578;1252;61748;-54
2023/09/18 04:22:43;;;;;;;24.10;16.40;;;;;;;17.51;65.71;100015.28;109609;1251;59432;-54
2023/09/18 04:25:10;;;;;;;25.00;15.20;;;;;;;17.71;65.08;100012.45;109518;1254;74855;-54
2023/09/18 04:27:37;;;;;;;25.70;14.60;;;;;;;18.13;63.42;100016.50;109368;1254;69187;-54
2023/09/18 04:30:05;;;;;;;21.00;13.70;;;;;;;18.54;61.90;100020.20;109224;1253;132235;-54
2023/09/18 04:32:31;;;;;;;19.70;14.80;;;;;;;18.96;60.22;100024.14;109188;1254;60690;-54
2023/09/18 04:34:59;;;;;;;19.70;12.70;;;;;;;19.38;58.83;100026.72;109297;1254;59026;-54
2023/09/18 04:37:26;;;;;;;16.50;13.00;;;;;;;19.77;56.86;100026.69;108988;1256;74532;-54
2023/09/18 04:39:52;;;;;;;19.90;11.80;;;;;;;20.00;55.78;100026.81;109051;1259;68646;-54
2023/09/18 04:42:19;;;;;;;16.60;11.60;;;;;;;20.35;55.21;100029.33;108918;1256;72717;-54
2023/09/18 04:44:46;;;;;;;16.30;10.90;;;;;;;20.84;53.71;100029.36;108938;1256;60384;-54
2023/09/18 04:47:12;;;;;;;25.60;11.00;;;;;;;21.29;52.62;100028.40;109067;1256;58942;-54
2023/09/18 04:49:39;;;;;;;17.70;11.50;;;;;;;21.77;50.27;100034.39;109009;1256;75477;-54
2023/09/18 04:52:06;;;;;;;20.40;11.40;;;;;;;22.11;48.81;100039.48;109129;1257;68548;-54
2023/09/18 04:54:33;;;;;;;20.10;11.60;;;;;;;22.27;48.19;100038.59;109105;1256;71952;-55
2023/09/18 04:56:59;;;;;;;22.20;11.40;;;;;;;22.41;47.59;100039.56;109297;1254;60510;-54
2023/09/18 04:59:26;;;;;;;19.70;11.50;;;;;;;22.61;47.86;100044.36;109370;1254;59960;-55
2023/09/18 05:01:53;;;;;;;32.60;12.70;;;;;;;22.78;47.16;100043.87;109323;1255;74918;-54
2023/09/18 05:04:20;;;;;;;26.40;11.50;;;;;;;23.13;46.18;100041.96;109366;1254;68511;-54
2023/09/18 05:06:46;;;;;;;24.20;11.80;;;;;;;23.24;45.01;100039.36;109411;1254;72545;-54
2023/09/18 05:09:14;;;;;;;25.50;12.20;;;;;;;22.87;45.13;100041.83;109634;1251;60340;-55
2023/09/18 05:11:41;;;;;;;35.90;12.50;;;;;;;22.77;44.81;100035.89;109704;1251;58883;-54
2023/09/18 05:14:08;;;;;;;40.60;12.40;;;;;;;22.69;44.58;100036.13;109644;1252;74456;-53
2023/09/18 05:16:35;;;;;;;34.00;11.90;;;;;;;22.69;44.27;100036.99;109656;1250;68501;-54
2023/09/18 05:19:02;;;;;;;26.20;12.20;;;;;;;22.83;43.89;100036.27;109586;1252;72333;-54
2023/09/18 05:21:30;;;;;;;25.90;11.30;;;;;;;22.82;43.54;100036.68;109605;1251;59419;-54
2023/09/18 05:23:57;;;;;;;30.40;12.30;;;;;;;22.66;43.59;100038.09;109384;1251;58995;-54
2023/09/18 05:26:24;;;;;;;40.20;12.20;;;;;;;22.92;43.76;100035.65;109683;1251;74421;-54
2023/09/18 05:28:51;;;;;;;24.40;11.50;;;;;;;23.20;43.02;100039.17;109739;1250;68833;-54
2023/09/18 05:31:18;;;;;;;21.40;9.70;;;;;;;23.35;42.48;100042.10;109720;1250;71311;-54
2023/09/18 05:33:44;;;;;;;15.80;9.70;;;;;;;23.28;42.13;100040.22;109665;1251;60134;-54
2023/09/18 05:36:13;;;;;;;27.80;11.10;;;;;;;23.31;42.34;100040.30;109725;1250;58974;-55
2023/09/18 05:38:39;;;;;;;26.40;10.80;;;;;;;23.71;41.88;100042.48;109670;1250;73385;-54
2023/09/18 05:41:06;;;;;;;23.20;10.80;;;;;;;24.20;41.27;100041.85;109685;1251;68503;-54
2023/09/18 05:43:33;;;;;;;24.90;10.70;;;;;;;24.24;40.96;100043.80;109673;1251;72475;-55
2023/09/18 05:46:00;;;;;;;16.20;9.90;;;;;;;23.96;40.87;100049.42;109730;1251;60109;-55
2023/09/18 05:48:27;;;;;;;14.60;9.90;;;;;;;24.01;40.84;100047.84;109633;1251;59971;-55
2023/09/18 05:50:54;;;;;;;15.50;9.20;;;;;;;23.94;40.95;100047.24;109706;1251;74444;-55
2023/09/18 05:53:21;;;;;;;12.10;9.20;;;;;;;24.19;40.86;100047.73;109777;1251;68692;-54
2023/09/18 05:55:47;;;;;;;26.20;9.60;;;;;;;24.51;40.60;100049.62;109724;1251;72357;-54
2023/09/18 05:58:14;;;;;;;15.90;9.60;;;;;;;24.38;40.21;100048.80;109748;1251;60311;-55
2023/09/18 06:00:40;;;;;;;15.50;10.00;;;;;;;24.35;40.24;100053.38;109704;1250;60069;-55
2023/09/18 06:03:10;;;;;;;23.90;10.80;;;;;;;24.63;40.33;100051.91;109778;1250;73263;-55
2023/09/18 06:05:37;;;;;;;27.90;11.60;;;;;;;25.01;39.65;100051.27;109591;1257;67297;-56
2023/09/18 06:08:05;;;;;;;19.80;10.80;;;;;;;24.63;39.90;100051.85;109764;1250;72668;-55
2023/09/18 06:10:32;;;;;;;13.20;9.20;;;;;;;24.78;39.85;100052.00;109719;1251;59081;-54
2023/09/18 06:13:03;;;;;;;14.90;9.40;;;;;;;24.41;40.40;100048.84;109589;1251;58957;-54
2023/09/18 06:15:30;;;;;;;15.90;9.30;;;;;;;24.76;39.97;100048.87;109618;1251;74560;-53
2023/09/18 06:17:57;;;;;;;17.40;9.70;;;;;;;25.06;39.61;100051.52;109676;1251;68681;-55
2023/09/18 06:20:24;;;;;;;13.40;9.30;;;;;;;25.48;38.91;100051.71;109595;1252;71183;-55
2023/09/18 06:22:50;;;;;;;12.80;8.90;;;;;;;25.51;38.61;100051.19;109686;1252;58996;-55
2023/09/18 06:25:17;;;;;;;12.50;9.20;;;;;;;25.96;38.34;100056.35;109725;1251;59155;-55
2023/09/18 06:27:44;;;;;;;14.10;8.90;;;;;;;26.42;37.84;100054.14;109820;1250;74476;-54
2023/09/18 06:30:11;;;;;;;10.90;8.60;;;;;;;26.40;37.66;100053.98;109734;1250;67631;-54
2023/09/18 06:32:38;;;;;;;15.00;9.90;;;;;;;26.63;37.52;100052.94;109330;1250;71341;-55
2023/09/18 06:35:05;;;;;;;10.10;8.70;;;;;;;26.68;37.20;100059.77;109707;1251;59081;-55
2023/09/18 06:37:32;;;;;;;12.60;7.60;;;;;;;26.36;37.66;100058.02;109736;1250;60470;-54
2023/09/18 06:39:59;;;;;;;12.50;8.40;;;;;;;26.61;37.62;100057.91;109724;1251;73434;-54
2023/09/18 06:42:25;;;;;;;9.10;7.70;;;;;;;26.63;37.64;100061.29;109758;1251;69222;-54
2023/09/18 06:44:57;;;;;;;12.50;8.30;;;;;;;26.80;37.25;100062.39;109342;1251;71114;-54
2023/09/18 06:47:24;;;;;;;13.70;7.30;;;;;;;27.16;37.00;100065.97;109328;1251;59021;-54
2023/09/18 06:49:51;;;;;;;8.40;6.50;;;;;;;27.28;36.37;100062.77;109732;1250;60313;-54
2023/09/18 06:52:18;;;;;;;12.30;7.20;;;;;;;27.24;36.69;100066.90;109778;1250;74582;-54
2023/09/18 06:54:44;;;;;;;12.70;8.10;;;;;;;27.37;36.54;100069.13;109712;1251;68527;-54
2023/09/18 06:57:11;;;;;;;11.10;8.50;;;;;;;27.37;36.56;100067.48;109634;1250;72531;-54
2023/09/18 06:59:38;;;;;;;14.20;8.70;;;;;;;27.57;36.38;100070.11;109727;1251;59021;-54
2023/09/18 07:02:04;;;;;;;12.90;8.10;;;;;;;27.84;35.94;100075.67;109730;1251;59532;-54
2023/09/18 07:04:31;;;;;;;11.30;7.20;;;;;;;28.35;35.82;100074.02;109711;1251;74559;-54
2023/09/18 07:06:58;;;;;;;8.30;6.70;;;;;;;28.48;35.28;100076.20;109476;1251;67538;-54
2023/09/18 07:09:25;;;;;;;20.40;9.00;;;;;;;28.55;35.23;100077.30;109439;1251;72667;-54
2023/09/18 07:11:52;;;;;;;14.20;8.00;;;;;;;28.90;34.92;100079.59;109746;1251;58955;-55
2023/09/18 07:14:19;;;;;;;16.90;7.90;;;;;;;29.26;34.75;100078.57;109611;1252;58973;-54
2023/09/18 07:16:45;;;;;;;12.90;8.60;;;;;;;29.62;33.94;100079.18;109684;1251;74772;-55
2023/09/18 07:19:16;;;;;;;9.20;7.20;;;;;;;29.62;33.97;100080.98;109630;1251;69127;-55
2023/09/18 07:21:43;;;;;;;13.50;8.40;;;;;;;29.80;33.76;100083.52;109614;1252;72512;-54
2023/09/18 07:24:10;;;;;;;11.80;8.40;;;;;;;30.08;33.87;100083.95;109685;1251;60410;-54
2023/09/18 07:26:36;;;;;;;25.40;10.10;;;;;;;30.45;33.21;100083.16;109695;1250;59950;-54
2023/09/18 07:29:04;;;;;;;12.70;7.30;;;;;;;30.58;33.05;100082.60;109747;1250;74697;-54
2023/09/18 07:31:30;;;;;;;9.40;6.80;;;;;;;30.85;32.63;100085.55;109736;1251;68675;-55
2023/09/18 07:33:57;;;;;;;12.10;6.40;;;;;;;30.89;32.06;100087.81;109737;1250;72497;-54
2023/09/18 07:36:24;;;;;;;10.70;6.80;;;;;;;30.96;32.33;100089.95;109747;1250;58915;-55
2023/09/18 07:38:50;;;;;;;10.30;6.40;;;;;;;31.25;31.43;100093.91;109554;1251;58981;-54
2023/09/18 07:41:19;;;;;;;10.70;5.70;;;;;;;30.72;31.82;100085.08;109767;1251;74829;-54
2023/09/18 07:43:46;;;;;;;9.20;6.10;;;;;;;30.94;31.88;100090.26;109247;1251;67295;-55
2023/09/18 07:46:12;;;;;;;11.10;6.90;;;;;;;31.16;31.59;100088.59;109748;1250;71272;-55
2023/09/18 07:48:39;;;;;;;8.50;6.60;;;;;;;30.86;31.80;100083.50;109741;1251;60151;-55
2023/09/18 07:51:06;;;;;;;13.40;6.10;;;;;;;31.23;31.90;100085.02;109766;1250;59970;-54
2023/09/18 07:53:32;;;;;;;11.60;5.70;;;;;;;31.47;31.23;100087.66;109711;1254;74343;-54
2023/09/18 07:56:01;;;;;;;14.70;7.00;;;;;;;31.45;31.37;100084.23;109778;1251;59020;-55
2023/09/18 07:58:33;;;;;;;14.90;7.30;;;;;;;31.50;31.44;100083.31;109747;1251;63953;-55
2023/09/18 08:00:59;;;;;;;10.40;7.20;;;;;;;31.61;31.35;100081.42;109450;1251;59041;-56
2023/09/18 08:03:26;;;;;;;6.60;4.30;;;;;;;31.79;30.32;100080.64;109346;1251;59047;-55
2023/09/18 08:05:53;;;;;;;8.20;4.80;;;;;;;31.55;29.85;100079.31;109804;1251;64641;-55
2023/09/18 08:08:20;;;;;;;15.50;7.10;;;;;;;31.64;29.70;100081.21;109775;1251;68598;-54
2023/09/18 08:10:47;;;;;;;10.40;4.80;;;;;;;31.67;29.76;100081.01;109730;1250;62575;-54
2023/09/18 08:13:13;;;;;;;9.40;5.60;;;;;;;31.90;30.30;100079.60;109631;1253;59018;-55
2023/09/18 08:15:40;;;;;;;10.30;6.90;;;;;;;31.80;30.14;100078.02;109611;1253;59291;-56
2023/09/18 08:18:07;;;;;;;9.80;6.10;;;;;;;31.76;30.64;100075.67;109684;1251;74507;-55
2023/09/18 08:20:36;;;;;;;16.80;6.00;;;;;;;32.26;30.23;100077.06;109562;1253;59946;-54
2023/09/18 08:23:05;;;;;;;9.40;5.20;;;;;;;32.63;29.45;100077.50;109647;1251;63708;-56
2023/09/18 08:25:32;;;;;;;10.40;5.70;;;;;;;32.90;28.97;100075.79;109746;1251;59036;-55
2023/09/18 08:27:58;;;;;;;8.00;5.90;;;;;;;33.16;28.95;100077.84;109551;1251;58896;-54
2023/09/18 08:30:25;;;;;;;12.00;4.90;;;;;;;33.15;28.45;100074.65;109730;1251;66070;-54
2023/09/18 08:32:52;;;;;;;10.30;5.30;;;;;;;32.54;28.61;100071.18;109784;1250;59053;-55
2023/09/18 08:35:19;;;;;;;8.60;4.50;;;;;;;32.13;28.59;100066.84;109561;1251;62754;-55
2023/09/18 08:37:46;;;;;;;7.50;3.60;;;;;;;32.52;28.29;100067.05;109753;1251;58954;-55
2023/09/18 08:40:13;;;;;;;5.10;3.40;;;;;;;32.59;26.69;100068.27;109703;1251;59321;-54
2023/09/18 08:42:45;;;;;;;4.70;3.50;;;;;;;32.35;27.08;100072.35;109604;1251;66989;-54
2023/09/18 08:45:22;;;;;;;6.00;3.90;;;;;;;32.45;27.10;100068.67;109631;1251;60265;-54
2023/09/18 08:47:49;;;;;;;;;;;;;;;32.38;27.22;100067.86;109641;1251;64105;-55
2023/09/18 08:50:15;;;;;;;20.10;4.40;;;;;;;32.85;26.64;100067.98;109710;1251;58931;-54
2023/09/18 08:52:42;;;;;;;6.80;4.00;;;;;;;32.73;26.78;100062.77;109741;1251;59017;-55
2023/09/18 08:55:09;;;;;;;9.70;4.20;;;;;;;32.36;27.11;100060.15;109702;1250;65686;-58
2023/09/18 08:57:37;;;;;;;10.30;3.50;;;;;;;31.94;28.06;100057.36;109566;1251;67255;-54
2023/09/18 09:00:07;;;;;;;3.40;3.00;;;;;;;32.06;27.62;100061.30;109709;1251;62591;-54
2023/09/18 09:02:34;;;;;;;13.20;3.80;;;;;;;32.16;26.55;100054.40;109709;1251;58998;-54
2023/09/18 09:05:01;;;;;;;5.00;3.50;;;;;;;32.03;26.46;100049.25;109452;1251;59061;-56
2023/09/18 09:07:30;;;;;;;5.60;3.00;;;;;;;31.73;26.07;100046.80;109691;1254;65965;-53
2023/09/18 09:09:57;;;;;;;8.90;3.80;;;;;;;31.13;26.59;100045.31;109721;1251;59794;-54
2023/09/18 09:12:50;;;;;;;5.30;4.00;;;;;;;31.04;26.92;100044.84;109651;1252;72442;-54
2023/09/18 09:15:17;;;;;;;4.60;3.10;;;;;;;30.59;26.01;100052.85;109355;1257;60283;-54
2023/09/18 09:17:46;;;;;;;6.30;4.00;;;;;;;31.08;25.72;100052.00;109393;1258;59189;-54
2023/09/18 09:20:14;;;;;;;15.00;4.90;;;;;;;31.63;25.15;100054.02;109401;1255;74496;-54
2023/09/18 09:22:41;;;;;;;8.00;5.70;;;;;;;32.12;24.67;100056.52;109198;1254;67041;-54
2023/09/18 09:25:20;;;;;;;10.40;5.80;;;;;;;31.73;25.58;100047.42;109364;1254;72859;-54
2023/09/18 09:27:46;;;;;;;10.00;6.60;;;;;;;31.29;26.24;100040.17;109389;1254;59008;-53
2023/09/18 09:30:26;;;;;;;5.80;3.70;;;;;;;31.50;26.10;100045.27;109174;1254;59040;-54
2023/09/18 09:32:55;;;;;;;6.70;3.90;;;;;;;31.54;26.41;100038.73;109408;1254;64583;-54
2023/09/18 09:35:23;;;;;;;10.50;4.00;;;;;;;31.42;26.44;100036.56;109411;1254;68636;-54
2023/09/18 09:37:51;;;;;;;6.80;4.40;;;;;;;31.49;25.79;100035.33;109389;1254;72381;-53
2023/09/18 09:40:19;;;;;;;10.90;3.70;;;;;;;31.85;25.65;100033.65;109415;1254;58999;-54
2023/09/18 09:42:46;;;;;;;8.50;4.30;;;;;;;31.57;26.30;100040.98;109379;1259;60051;-53
2023/09/18 09:45:15;;;;;;;7.10;3.70;;;;;;;31.71;26.43;100031.57;109390;1254;73261;-54
2023/09/18 09:47:42;;;;;;;5.40;3.80;;;;;;;31.46;26.68;100032.25;109707;1251;68878;-54
2023/09/18 09:50:15;;;;;;;4.20;3.70;;;;;;;31.51;26.80;100027.13;109605;1251;73860;-55
2023/09/18 09:52:43;;;;;;;8.50;4.20;;;;;;;31.10;27.47;100015.98;109723;1251;61425;-55
2023/09/18 09:55:25;;;;;;;4.90;2.80;;;;;;;31.13;28.54;100012.20;109746;1251;60204;-56
2023/09/18 09:57:54;;;;;;;20.00;5.30;;;;;;;30.96;28.84;100016.55;109754;1251;74461;-54
2023/09/18 10:00:27;;;;;;;8.70;4.10;;;;;;;31.70;28.10;100018.33;109470;1251;68542;-55
2023/09/18 10:02:57;;;;;;;4.40;3.90;;;;;;;31.82;27.31;100017.37;109717;1251;72515;-55
2023/09/18 10:05:26;;;;;;;6.10;3.70;;;;;;;31.86;27.08;100016.92;109422;1254;59018;-54
2023/09/18 10:07:58;;;;;;;9.50;3.90;;;;;;;31.94;27.06;100013.49;109668;1251;61425;-55
2023/09/18 10:10:29;;;;;;;6.30;4.20;;;;;;;32.25;27.13;100015.88;109762;1251;64684;-55
2023/09/18 10:12:56;;;;;;;5.30;3.90;;;;;;;32.31;27.14;100013.85;109566;1252;58882;-55
2023/09/18 10:15:23;;;;;;;5.80;3.70;;;;;;;32.46;26.60;100007.35;109348;1253;64083;-54
2023/09/18 10:17:50;;;;;;;11.30;7.10;;;;;;;32.55;26.45;100012.77;109521;1252;58934;-54
2023/09/18 10:20:19;;;;;;;7.60;6.20;;;;;;;32.01;26.28;100010.66;109421;1253;58993;-54
2023/09/18 10:22:49;;;;;;;10.40;7.00;;;;;;;32.48;26.02;100010.59;109540;1256;64613;-54
2023/09/18 10:25:29;;;;;;;9.30;4.70;;;;;;;32.02;26.27;100007.34;109624;1251;60165;-54
2023/09/18 10:28:01;;;;;;;8.10;3.90;;;;;;;31.92;26.52;99995.71;109615;1251;72858;-54
2023/09/18 10:30:32;;;;;;;8.20;4.30;;;;;;;31.84;26.14;99999.46;109598;1251;60390;-55
2023/09/18 10:33:01;;;;;;;12.00;6.80;;;;;;;32.04;26.02;99999.19;109614;1251;60089;-54
2023/09/18 10:35:28;;;;;;;14.30;6.50;;;;;;;33.02;25.63;100004.69;109731;1251;66043;-54
2023/09/18 10:37:54;;;;;;;4.00;3.60;;;;;;;33.90;24.46;100002.23;109400;1251;58989;-55
2023/09/18 10:40:22;;;;;;;8.80;4.40;;;;;;;33.68;24.27;99999.95;109720;1251;64102;-57
2023/09/18 10:42:50;;;;;;;10.30;4.10;;;;;;;32.80;24.66;99999.02;109772;1251;58860;-54
2023/09/18 10:45:17;;;;;;;;;;;;;;;32.55;24.96;99991.83;109655;1251;59037;-54
2023/09/18 10:47:47;;;;;;;8.30;3.90;;;;;;;32.57;24.97;99988.80;109779;1251;64884;-55
2023/09/18 10:50:25;;;;;;;6.70;4.50;;;;;;;32.51;25.12;99989.02;109343;1251;61348;-55
2023/09/18 10:52:52;;;;;;;7.40;4.40;;;;;;;33.08;24.34;99992.55;109709;1251;62811;-55
2023/09/18 10:55:19;;;;;;;8.00;3.70;;;;;;;32.42;24.64;99987.48;109600;1251;59103;-54
2023/09/18 10:57:52;;;;;;;7.90;3.90;;;;;;;32.44;25.29;99978.52;109460;1251;58957;-55
2023/09/18 11:00:22;;;;;;;4.50;3.70;;;;;;;32.34;25.29;99978.88;109498;1251;64788;-55
2023/09/18 11:02:51;;;;;;;9.70;3.40;;;;;;;32.42;25.13;99972.73;109759;1251;60311;-55
2023/09/18 11:05:32;;;;;;;4.90;3.90;;;;;;;32.00;25.69;99971.42;109342;1251;71418;-55
2023/09/18 11:08:23;;;;;;;5.40;3.90;;;;;;;31.93;26.13;99976.20;109740;1251;60109;-55
2023/09/18 11:10:58;;;;;;;7.00;3.70;;;;;;;31.94;25.71;99970.83;109741;1251;58946;-54
2023/09/18 11:13:28;;;;;;;9.30;4.50;;;;;;;32.59;24.99;99970.07;109607;1251;64964;-55